Aérodrome :







RETROUVEZ-NOUS SUR...

 
LOGIN :

S'inscrire | Disclaimer

   EN    FR    IT 

 









Légende :    VFR   VFR Marginal   IFR   IFR Intensif   IFR Très Intensif
Visi : 
Plafond : 
>= 8 km
>= 3000ft
5 à 8 km
1000 à 3000 ft
1500m à 5 km
500 à 1000 ft
800 à 1500m
200 à 500 ft
< 800m
< 200 ft
Symboles :   Orages  Brouillard  Fortes neiges  Fortes précipitations  Vent > 20 kt






- Altitude de l'aérodrome : 241 ft
- Code IATA : CEF


KCEF - Westover ARB/Metropolitan

DERNIER METAR :
  • 191256Z 00000KT 10SM FEW020 04/02 A3004 RMK AO2A SLP180 T00390021

METARs EXPIRÉS :
  • 191156Z 00000KT 10SM MIFG FEW001 00/M01 A3002 RMK AO2A SLP173 T10021009 10063 21016 53010
  • 191056Z 00000KT 10SM MIFG CLR M01/M02 A2999 RMK AO2A SLP163 T10151023

TAF TAF KCEF
Valide du 19 à 10h jusqu'au 20 à 16h UTC


191000Z 1910/2016 32010G15KT 9999 SKC QNH3000INS
BECMG 1912/1913 30012KT 9999 FEW035 QNH3002INS
BECMG 1921/1922 VRB06KT 9999 SKC QNH3003INS
BECMG 2010/2011 VRB06KT 9999 BKN200 QNH3010INS
BECMG 2014/2015 VRB06KT 9999 BKN150 QNH3013INS TX16/1918Z TN01/1911Z



MET'MAP, la Météo Aéronautique d'un coup d'oeil ! - Copyright ORBIFLY Décembre 2007 - Disclaimer

ORBIFLY MET'MAP TEAM :

Programmation & Développement : Alexandra Zaïnal
Conception & Développement : Baudouin d'Aumeries
Co-Programmation & Développement : Marc-Olivier Méhu
Soutien technique & logistique : Manuel Goepfert

Contact : metmap@orbifly.com




SOURCES & CREDITS :

   NOAA